createdAt,value
2023-05-21T00:01:35.342Z,19.31
2023-05-21T00:04:03.529Z,19.34
2023-05-21T00:06:32.580Z,19.37
2023-05-21T00:09:00.632Z,19.36
2023-05-21T00:11:28.588Z,19.29
2023-05-21T00:13:57.924Z,19.28
2023-05-21T00:16:26.823Z,19.35
2023-05-21T00:18:55.678Z,19.39
2023-05-21T00:21:25.990Z,19.30
2023-05-21T00:23:56.371Z,19.33
2023-05-21T00:26:25.123Z,19.33
2023-05-21T00:28:58.733Z,19.33
2023-05-21T00:31:26.742Z,19.36
2023-05-21T00:33:54.731Z,19.31
2023-05-21T00:36:24.032Z,19.28
2023-05-21T00:38:52.623Z,19.22
2023-05-21T00:41:22.767Z,19.27
2023-05-21T00:43:50.761Z,19.26
2023-05-21T00:46:22.300Z,19.16
2023-05-21T00:48:51.275Z,19.06
2023-05-21T00:51:21.821Z,18.94
2023-05-21T00:53:52.506Z,19.02
2023-05-21T00:56:22.742Z,19.10
2023-05-21T00:58:51.951Z,19.19
2023-05-21T01:01:21.392Z,19.23
2023-05-21T01:03:49.452Z,19.25
2023-05-21T01:06:17.449Z,19.23
2023-05-21T01:08:46.615Z,19.21
2023-05-21T01:11:15.803Z,19.21
2023-05-21T01:13:44.887Z,19.21
2023-05-21T01:16:14.047Z,19.20
2023-05-21T01:18:45.180Z,19.18
2023-05-21T01:21:13.820Z,19.17
2023-05-21T01:23:43.231Z,19.08
2023-05-21T01:26:13.010Z,19.10
2023-05-21T01:28:40.971Z,19.01
2023-05-21T01:31:21.054Z,18.92
2023-05-21T01:33:52.674Z,18.83
2023-05-21T01:36:26.245Z,18.80
2023-05-21T01:39:02.039Z,18.78
2023-05-21T01:41:34.145Z,18.70
2023-05-21T01:44:03.254Z,18.59
2023-05-21T01:46:34.328Z,18.48
2023-05-21T01:49:03.018Z,18.47
2023-05-21T01:51:31.461Z,18.44
2023-05-21T01:54:02.248Z,18.44
2023-05-21T01:56:30.207Z,18.46
2023-05-21T01:58:59.446Z,18.47
2023-05-21T02:01:30.431Z,18.42
2023-05-21T02:03:58.870Z,18.35
2023-05-21T02:06:26.892Z,18.32
2023-05-21T02:08:55.669Z,18.36
2023-05-21T02:11:25.313Z,18.36
2023-05-21T02:13:54.435Z,18.36
2023-05-21T02:16:22.453Z,18.37
2023-05-21T02:18:52.297Z,18.41
2023-05-21T02:21:21.125Z,18.42
2023-05-21T02:23:49.586Z,18.32
2023-05-21T02:26:18.039Z,18.31
2023-05-21T02:28:48.162Z,18.18
2023-05-21T02:31:16.264Z,18.09
2023-05-21T02:33:44.265Z,18.05
2023-05-21T02:36:13.382Z,17.95
2023-05-21T02:38:43.763Z,17.91
2023-05-21T02:41:12.167Z,17.91
2023-05-21T02:43:40.973Z,17.83
2023-05-21T02:46:10.402Z,17.73
2023-05-21T02:48:38.417Z,17.76
2023-05-21T02:51:07.204Z,17.79
2023-05-21T02:53:35.264Z,17.75
2023-05-21T02:56:03.690Z,17.55
2023-05-21T02:58:31.999Z,17.46
2023-05-21T03:00:59.944Z,17.50
2023-05-21T03:03:30.607Z,17.37
2023-05-21T03:05:58.704Z,17.41
2023-05-21T03:08:26.638Z,17.55
2023-05-21T03:10:55.140Z,17.69
2023-05-21T03:13:23.210Z,17.81
2023-05-21T03:15:56.100Z,17.94
2023-05-21T03:18:24.110Z,18.01
2023-05-21T03:20:54.398Z,18.04
2023-05-21T03:23:22.890Z,18.07
2023-05-21T03:25:53.512Z,17.99
2023-05-21T03:28:22.174Z,17.89
2023-05-21T03:30:52.150Z,17.70
2023-05-21T03:33:47.426Z,17.63
2023-05-21T03:36:28.387Z,17.69
2023-05-21T03:38:57.791Z,17.67
2023-05-21T03:41:26.153Z,17.61
2023-05-21T03:44:00.221Z,17.58
2023-05-21T03:46:33.636Z,17.39
2023-05-21T03:49:17.389Z,17.24
2023-05-21T03:51:46.718Z,17.19
2023-05-21T03:54:17.959Z,17.17
2023-05-21T03:56:46.974Z,17.23
2023-05-21T03:59:14.884Z,17.33
2023-05-21T04:01:45.339Z,17.47
2023-05-21T04:04:16.340Z,17.62
2023-05-21T04:06:44.410Z,17.79
2023-05-21T04:09:15.052Z,17.85
2023-05-21T04:11:42.953Z,17.82
2023-05-21T04:14:11.530Z,17.84
2023-05-21T04:16:39.676Z,17.87
2023-05-21T04:19:07.949Z,17.93
2023-05-21T04:21:36.305Z,18.00
2023-05-21T04:24:05.158Z,18.08
2023-05-21T04:26:56.075Z,18.09
2023-05-21T04:29:25.847Z,18.13
2023-05-21T04:31:53.978Z,18.11
2023-05-21T04:34:21.932Z,18.10
2023-05-21T04:36:49.932Z,18.11
2023-05-21T04:39:18.088Z,18.06
2023-05-21T04:41:45.996Z,18.11
2023-05-21T04:44:15.794Z,18.14
2023-05-21T04:46:46.795Z,18.19
2023-05-21T04:49:15.356Z,18.20
2023-05-21T04:51:43.323Z,18.25
2023-05-21T04:54:11.256Z,18.30
2023-05-21T04:56:39.156Z,18.13
2023-05-21T04:59:07.299Z,18.15
2023-05-21T05:01:38.648Z,18.18
2023-05-21T05:04:06.952Z,18.25
2023-05-21T05:06:34.982Z,18.34
2023-05-21T05:09:02.894Z,18.37
2023-05-21T05:11:31.936Z,18.37
2023-05-21T05:13:59.889Z,18.34
2023-05-21T05:16:29.663Z,18.31
2023-05-21T05:18:59.793Z,18.40
2023-05-21T05:21:27.752Z,18.54
2023-05-21T05:23:56.008Z,18.66
2023-05-21T05:26:28.020Z,18.83
2023-05-21T05:28:56.837Z,18.91
2023-05-21T05:31:25.127Z,18.98
2023-05-21T05:33:54.366Z,19.06
2023-05-21T05:36:26.242Z,19.10
2023-05-21T05:38:54.219Z,19.17
2023-05-21T05:41:23.268Z,19.15
2023-05-21T05:43:51.664Z,19.25
2023-05-21T05:46:22.181Z,19.35
2023-05-21T05:48:51.825Z,19.31
2023-05-21T05:51:19.785Z,19.33
2023-05-21T05:53:49.078Z,19.40
2023-05-21T05:56:17.935Z,19.43
2023-05-21T05:58:45.941Z,19.50
2023-05-21T06:01:17.828Z,19.55
2023-05-21T06:03:46.405Z,19.60
2023-05-21T06:06:19.478Z,19.66
2023-05-21T06:08:49.758Z,19.71
2023-05-21T06:11:19.191Z,19.81
2023-05-21T06:13:47.238Z,19.89
2023-05-21T06:16:17.591Z,19.93
2023-05-21T06:18:45.637Z,19.98
2023-05-21T06:21:13.657Z,20.03
2023-05-21T06:23:41.767Z,20.04
2023-05-21T06:26:12.150Z,20.06
2023-05-21T06:28:41.250Z,20.06
2023-05-21T06:31:11.765Z,20.06
2023-05-21T06:33:40.460Z,20.09
2023-05-21T06:36:09.327Z,20.15
2023-05-21T06:38:38.199Z,20.23
2023-05-21T06:41:06.194Z,20.30
2023-05-21T06:43:51.528Z,20.41
2023-05-21T06:46:38.180Z,20.47
2023-05-21T06:49:09.240Z,20.55
2023-05-21T06:51:37.251Z,20.62
2023-05-21T06:54:06.515Z,20.70
2023-05-21T06:56:36.211Z,20.77
2023-05-21T06:59:05.457Z,20.79
2023-05-21T07:01:34.346Z,20.90
2023-05-21T07:04:03.182Z,20.96
2023-05-21T07:06:32.278Z,21.02
2023-05-21T07:09:00.264Z,21.06
2023-05-21T07:11:29.949Z,21.11
2023-05-21T07:14:01.253Z,21.16
2023-05-21T07:16:33.382Z,21.20
2023-05-21T07:19:01.456Z,21.26
2023-05-21T07:21:29.786Z,21.33
2023-05-21T07:23:57.851Z,21.41
2023-05-21T07:26:26.310Z,21.45
2023-05-21T07:28:54.358Z,21.51
2023-05-21T07:31:22.411Z,21.58
2023-05-21T07:33:54.155Z,21.64
2023-05-21T07:36:27.268Z,21.73
2023-05-21T07:38:55.585Z,21.77
2023-05-21T07:41:23.862Z,21.84
2023-05-21T07:43:52.832Z,21.86
2023-05-21T07:46:21.495Z,21.81
2023-05-21T07:48:55.596Z,21.87
2023-05-21T07:51:23.741Z,21.90
2023-05-21T07:53:53.785Z,21.92
2023-05-21T07:56:29.424Z,21.96
2023-05-21T07:58:58.014Z,21.99
2023-05-21T08:01:29.538Z,22.00
2023-05-21T08:04:00.717Z,22.03
2023-05-21T08:06:29.018Z,22.05
2023-05-21T08:08:57.390Z,22.13
2023-05-21T08:11:26.930Z,22.23
2023-05-21T08:13:55.528Z,22.26
2023-05-21T08:16:24.977Z,22.29
2023-05-21T08:18:53.123Z,22.32
2023-05-21T08:21:22.639Z,22.35
2023-05-21T08:23:54.015Z,22.35
2023-05-21T08:26:22.181Z,22.34
2023-05-21T08:28:50.118Z,22.36
2023-05-21T08:31:19.333Z,22.40
2023-05-21T08:33:51.889Z,22.42
2023-05-21T08:36:26.011Z,22.43
2023-05-21T08:38:59.808Z,22.43
2023-05-21T08:41:37.873Z,22.46
2023-05-21T08:44:12.545Z,22.53
2023-05-21T08:46:42.776Z,22.59
2023-05-21T08:49:13.762Z,22.63
2023-05-21T08:51:44.481Z,22.64
2023-05-21T08:54:14.051Z,22.61
2023-05-21T08:56:47.019Z,22.62
2023-05-21T08:59:16.236Z,22.64
2023-05-21T09:01:46.055Z,22.67
2023-05-21T09:04:27.660Z,22.69
2023-05-21T09:06:59.253Z,22.72
2023-05-21T09:09:52.814Z,22.76
2023-05-21T09:12:21.366Z,22.79
2023-05-21T09:14:50.207Z,22.84
2023-05-21T09:17:21.373Z,22.87
2023-05-21T09:20:12.354Z,22.98
2023-05-21T09:22:46.767Z,22.98
2023-05-21T09:25:17.005Z,22.99
2023-05-21T09:27:45.588Z,23.02
2023-05-21T09:30:15.471Z,23.07
2023-05-21T09:32:45.638Z,23.07
2023-05-21T09:35:15.510Z,23.06
2023-05-21T09:37:48.411Z,23.08
2023-05-21T09:40:18.032Z,23.07
2023-05-21T09:42:48.544Z,23.05
2023-05-21T09:45:20.424Z,23.06
2023-05-21T09:47:52.390Z,23.09
2023-05-21T09:50:24.914Z,23.12
2023-05-21T09:52:55.538Z,23.12
2023-05-21T09:55:24.323Z,23.09
2023-05-21T09:57:53.326Z,23.09
2023-05-21T10:00:22.719Z,23.16
2023-05-21T10:02:55.044Z,23.17
2023-05-21T10:05:27.127Z,23.19
2023-05-21T10:08:02.031Z,23.20
2023-05-21T10:10:31.167Z,23.25
2023-05-21T10:13:01.740Z,23.35
2023-05-21T10:15:33.323Z,23.49
2023-05-21T10:18:02.852Z,23.56
2023-05-21T10:20:31.122Z,23.63
2023-05-21T10:23:00.934Z,23.71
2023-05-21T10:25:29.697Z,23.70
2023-05-21T10:27:58.485Z,23.77
2023-05-21T10:30:26.568Z,23.89
2023-05-21T10:32:56.988Z,24.01
2023-05-21T10:35:25.585Z,24.16
2023-05-21T10:37:55.245Z,24.38
2023-05-21T10:40:24.675Z,24.75
2023-05-21T10:43:14.472Z,25.08
2023-05-21T10:46:00.622Z,25.26
2023-05-21T10:48:38.292Z,25.24
2023-05-21T10:51:23.571Z,25.14
2023-05-21T10:54:14.724Z,25.01
2023-05-21T10:56:54.070Z,25.00
2023-05-21T10:59:36.512Z,25.17
2023-05-21T11:02:06.381Z,25.39
2023-05-21T11:04:39.737Z,25.40
2023-05-21T11:07:07.739Z,25.34
2023-05-21T11:09:35.852Z,25.36
2023-05-21T11:12:05.616Z,25.40
2023-05-21T11:14:39.840Z,25.51
2023-05-21T11:17:17.006Z,25.56
2023-05-21T11:19:47.407Z,25.53
2023-05-21T11:22:23.865Z,25.45
2023-05-21T11:24:55.621Z,25.40
2023-05-21T11:27:36.646Z,25.42
2023-05-21T11:30:06.700Z,25.43
2023-05-21T11:32:38.150Z,25.39
2023-05-21T11:35:07.143Z,25.33
2023-05-21T11:37:40.654Z,25.29
2023-05-21T11:40:25.991Z,25.27
2023-05-21T11:42:57.157Z,25.19
2023-05-21T11:45:31.921Z,25.15
2023-05-21T11:48:00.089Z,25.07
2023-05-21T11:50:30.573Z,24.91
2023-05-21T11:52:59.867Z,24.88
2023-05-21T11:55:28.111Z,24.75
2023-05-21T11:57:59.434Z,24.76
2023-05-21T12:00:27.466Z,24.76
2023-05-21T12:02:57.261Z,24.80
2023-05-21T12:05:27.116Z,24.76
2023-05-21T12:07:56.459Z,24.87
2023-05-21T12:10:24.796Z,24.89
2023-05-21T12:12:56.353Z,24.96
2023-05-21T12:15:28.016Z,25.01
2023-05-21T12:17:57.871Z,25.15
2023-05-21T12:20:28.110Z,25.32
2023-05-21T12:22:58.888Z,25.47
2023-05-21T12:25:27.473Z,25.60
2023-05-21T12:27:58.779Z,25.70
2023-05-21T12:30:29.638Z,25.69
2023-05-21T12:32:59.624Z,25.64
2023-05-21T12:35:27.755Z,25.80
2023-05-21T12:37:55.794Z,25.76
2023-05-21T12:40:35.428Z,26.04
2023-05-21T12:43:03.730Z,26.33
2023-05-21T12:45:33.962Z,26.50
2023-05-21T12:48:02.791Z,26.60
2023-05-21T12:50:30.888Z,26.77
2023-05-21T12:52:59.800Z,26.95
2023-05-21T12:55:27.708Z,27.01
2023-05-21T12:58:04.482Z,27.05
2023-05-21T13:00:34.701Z,27.08
2023-05-21T13:03:04.440Z,27.06
2023-05-21T13:05:32.780Z,27.26
2023-05-21T13:08:00.765Z,27.41
2023-05-21T13:10:28.660Z,27.50
2023-05-21T13:12:56.633Z,27.66
2023-05-21T13:15:24.621Z,27.86
2023-05-21T13:17:56.072Z,28.05
2023-05-21T13:20:27.407Z,28.30
2023-05-21T13:22:55.842Z,28.54
2023-05-21T13:25:28.471Z,28.76
2023-05-21T13:27:57.253Z,28.75
2023-05-21T13:30:25.177Z,28.36
2023-05-21T13:32:54.695Z,28.09
2023-05-21T13:35:23.316Z,27.82
2023-05-21T13:37:51.285Z,27.36
2023-05-21T13:40:19.495Z,26.97
2023-05-21T13:42:49.138Z,26.60
2023-05-21T13:45:18.587Z,26.20
2023-05-21T13:47:47.960Z,25.80
2023-05-21T13:50:18.045Z,25.25
2023-05-21T13:52:46.107Z,24.84
2023-05-21T13:55:15.829Z,24.53
2023-05-21T13:57:44.301Z,24.27
2023-05-21T14:00:15.386Z,24.03
2023-05-21T14:02:43.905Z,23.82
2023-05-21T14:05:12.480Z,23.53
2023-05-21T14:07:42.597Z,23.32
2023-05-21T14:10:11.227Z,23.19
2023-05-21T14:12:40.586Z,23.07
2023-05-21T14:15:09.286Z,22.96
2023-05-21T14:17:37.314Z,22.83
2023-05-21T14:20:06.327Z,22.74
2023-05-21T14:22:34.194Z,22.73
2023-05-21T14:25:04.006Z,22.73
2023-05-21T14:27:32.062Z,22.76
2023-05-21T14:30:00.076Z,22.81
2023-05-21T14:32:28.056Z,22.86
2023-05-21T14:34:56.798Z,22.86
2023-05-21T14:37:24.790Z,22.84
2023-05-21T14:39:52.729Z,22.79
2023-05-21T14:42:22.726Z,22.80
2023-05-21T14:44:50.679Z,22.76
2023-05-21T14:47:18.870Z,22.74
2023-05-21T14:49:46.873Z,22.77
2023-05-21T14:52:14.724Z,22.78
2023-05-21T14:54:42.738Z,22.87
2023-05-21T14:57:10.798Z,23.03
2023-05-21T14:59:40.113Z,23.20
2023-05-21T15:02:08.005Z,23.37
2023-05-21T15:04:35.973Z,23.49
2023-05-21T15:07:03.942Z,23.58
2023-05-21T15:09:31.987Z,23.62
2023-05-21T15:11:59.906Z,23.61
2023-05-21T15:14:27.855Z,23.59
2023-05-21T15:16:57.106Z,23.61
2023-05-21T15:19:25.174Z,23.53
2023-05-21T15:21:53.444Z,23.52
2023-05-21T15:24:21.428Z,23.61
2023-05-21T15:26:49.747Z,23.68
2023-05-21T15:29:17.692Z,23.75
2023-05-21T15:31:45.682Z,23.82
2023-05-21T15:34:15.123Z,23.88
2023-05-21T15:36:43.057Z,23.97
2023-05-21T15:39:11.001Z,24.04
2023-05-21T15:41:38.907Z,24.07
2023-05-21T15:44:06.893Z,24.07
2023-05-21T15:46:34.992Z,24.05
2023-05-21T15:49:03.000Z,24.03
2023-05-21T15:51:32.249Z,24.00
2023-05-21T15:54:00.507Z,23.98
2023-05-21T15:56:28.378Z,23.89
2023-05-21T15:58:58.664Z,23.74
2023-05-21T16:01:28.215Z,23.61
2023-05-21T16:03:56.399Z,23.46
2023-05-21T16:06:24.448Z,23.36
2023-05-21T16:08:53.761Z,23.23
2023-05-21T16:11:22.310Z,23.11
2023-05-21T16:13:50.319Z,23.03
2023-05-21T16:16:18.203Z,22.99
2023-05-21T16:18:46.223Z,22.94
2023-05-21T16:21:14.569Z,22.88
2023-05-21T16:23:42.774Z,22.84
2023-05-21T16:26:12.391Z,22.84
2023-05-21T16:28:40.337Z,22.81
2023-05-21T16:31:08.642Z,22.75
2023-05-21T16:33:36.731Z,22.73
2023-05-21T16:36:04.816Z,22.73
2023-05-21T16:38:32.849Z,22.71
2023-05-21T16:41:01.002Z,22.69
2023-05-21T16:43:30.259Z,22.65
2023-05-21T16:45:58.209Z,22.58
2023-05-21T16:48:26.183Z,22.56
2023-05-21T16:50:54.190Z,22.55
2023-05-21T16:53:22.316Z,22.55
2023-05-21T16:55:50.257Z,22.50
2023-05-21T16:58:19.070Z,22.42
2023-05-21T17:00:48.921Z,22.44
2023-05-21T17:03:17.209Z,22.45
2023-05-21T17:05:45.325Z,22.44
2023-05-21T17:08:13.364Z,22.45
2023-05-21T17:10:41.287Z,22.42
2023-05-21T17:13:20.789Z,22.38
2023-05-21T17:15:52.677Z,22.39
2023-05-21T17:18:20.808Z,22.41
2023-05-21T17:20:48.790Z,22.41
2023-05-21T17:23:16.940Z,22.28
2023-05-21T17:25:45.043Z,22.39
2023-05-21T17:28:13.028Z,22.36
2023-05-21T17:30:41.142Z,22.27
2023-05-21T17:33:10.762Z,22.13
2023-05-21T17:35:39.268Z,22.01
2023-05-21T17:38:08.084Z,21.95
2023-05-21T17:40:36.301Z,21.82
2023-05-21T17:43:07.055Z,21.89
2023-05-21T17:45:35.201Z,21.86
2023-05-21T17:48:03.365Z,21.81
2023-05-21T17:50:34.178Z,21.75
2023-05-21T17:53:02.145Z,21.71
2023-05-21T17:55:30.002Z,21.64
2023-05-21T17:57:57.895Z,21.55
2023-05-21T18:00:25.879Z,21.48
2023-05-21T18:02:53.971Z,21.40
2023-05-21T18:05:22.816Z,21.36
2023-05-21T18:07:52.601Z,21.31
2023-05-21T18:10:23.390Z,21.25
2023-05-21T18:12:51.409Z,21.16
2023-05-21T18:15:19.396Z,21.18
2023-05-21T18:17:48.309Z,21.14
2023-05-21T18:20:16.294Z,21.06
2023-05-21T18:22:45.004Z,20.96
2023-05-21T18:25:14.309Z,20.83
2023-05-21T18:27:42.229Z,20.71
2023-05-21T18:30:10.830Z,20.66
2023-05-21T18:32:39.572Z,20.69
2023-05-21T18:35:10.684Z,20.71
2023-05-21T18:37:42.165Z,20.75
2023-05-21T18:40:11.349Z,20.76
2023-05-21T18:42:40.593Z,20.77
2023-05-21T18:45:10.235Z,20.77
2023-05-21T18:47:40.230Z,20.76
2023-05-21T18:50:10.148Z,20.79
2023-05-21T18:52:38.100Z,20.76
2023-05-21T18:55:07.061Z,20.77
2023-05-21T18:57:35.127Z,20.72
2023-05-21T19:00:05.565Z,20.66
2023-05-21T19:02:33.901Z,20.61
2023-05-21T19:05:02.899Z,20.55
2023-05-21T19:07:30.946Z,20.54
2023-05-21T19:10:00.130Z,20.53
2023-05-21T19:12:29.404Z,20.50
2023-05-21T19:14:57.343Z,20.42
2023-05-21T19:17:26.788Z,20.37
2023-05-21T19:19:56.134Z,20.29
2023-05-21T19:22:24.361Z,20.28
2023-05-21T19:24:52.877Z,20.17
2023-05-21T19:27:21.417Z,20.12
2023-05-21T19:29:49.642Z,20.00
2023-05-21T19:32:17.684Z,20.02
2023-05-21T19:34:48.312Z,19.99
2023-05-21T19:37:16.716Z,19.96
2023-05-21T19:39:44.820Z,19.90
2023-05-21T19:42:12.974Z,19.89
2023-05-21T19:44:41.399Z,19.88
2023-05-21T19:47:09.919Z,19.83
2023-05-21T19:49:37.998Z,19.79
2023-05-21T19:52:07.415Z,19.78
2023-05-21T19:54:35.687Z,19.73
2023-05-21T19:57:03.915Z,19.72
2023-05-21T19:59:31.922Z,19.67
2023-05-21T20:02:00.099Z,19.58
2023-05-21T20:04:28.148Z,19.51
2023-05-21T20:06:56.106Z,19.49
2023-05-21T20:09:25.600Z,19.45
2023-05-21T20:11:53.502Z,19.48
2023-05-21T20:14:21.438Z,19.54
2023-05-21T20:16:49.467Z,19.53
2023-05-21T20:19:17.429Z,19.55
2023-05-21T20:21:45.514Z,19.57
2023-05-21T20:24:13.539Z,19.52
2023-05-21T20:26:44.987Z,19.42
2023-05-21T20:29:13.087Z,19.31
2023-05-21T20:31:41.089Z,19.16
2023-05-21T20:34:10.438Z,19.07
2023-05-21T20:36:40.313Z,18.94
2023-05-21T20:39:09.210Z,18.90
2023-05-21T20:41:37.688Z,18.84
2023-05-21T20:44:07.883Z,18.77
2023-05-21T20:46:38.263Z,18.68
2023-05-21T20:49:06.788Z,18.59
2023-05-21T20:51:34.866Z,18.52
2023-05-21T20:54:02.810Z,18.51
2023-05-21T20:56:41.602Z,18.50
2023-05-21T20:59:12.955Z,18.51
2023-05-21T21:01:41.736Z,18.55
2023-05-21T21:04:10.048Z,18.65
2023-05-21T21:06:40.151Z,18.75
2023-05-21T21:09:08.453Z,18.79
2023-05-21T21:11:36.903Z,18.85
2023-05-21T21:14:04.920Z,18.84
2023-05-21T21:16:34.490Z,18.89
2023-05-21T21:19:02.787Z,18.87
2023-05-21T21:21:31.761Z,18.84
2023-05-21T21:23:59.779Z,18.91
2023-05-21T21:26:27.786Z,18.97
2023-05-21T21:28:56.319Z,19.08
2023-05-21T21:31:24.929Z,19.16
2023-05-21T21:33:54.414Z,19.20
2023-05-21T21:36:22.402Z,19.21
2023-05-21T21:38:50.471Z,19.18
2023-05-21T21:41:20.204Z,19.16
2023-05-21T21:43:48.881Z,19.11
2023-05-21T21:46:16.840Z,19.09
2023-05-21T21:48:44.914Z,19.07
2023-05-21T21:51:15.562Z,19.06
2023-05-21T21:53:43.966Z,19.01
2023-05-21T21:56:12.055Z,18.94
2023-05-21T21:58:39.983Z,18.93
2023-05-21T22:01:07.966Z,18.95
2023-05-21T22:03:35.975Z,18.92
2023-05-21T22:06:03.869Z,18.82
2023-05-21T22:08:33.161Z,18.79
2023-05-21T22:11:01.937Z,18.74
2023-05-21T22:13:30.228Z,18.73
2023-05-21T22:15:58.416Z,18.75
2023-05-21T22:18:39.529Z,18.75
2023-05-21T22:21:09.571Z,18.74
2023-05-21T22:23:39.667Z,18.68
2023-05-21T22:26:07.824Z,18.63
2023-05-21T22:28:35.960Z,18.62
2023-05-21T22:31:04.103Z,18.54
2023-05-21T22:33:32.299Z,18.38
2023-05-21T22:36:00.279Z,18.32
2023-05-21T22:38:28.422Z,18.30
2023-05-21T22:40:58.037Z,18.28
2023-05-21T22:43:26.729Z,18.22
2023-05-21T22:45:54.754Z,18.29
2023-05-21T22:48:23.052Z,18.41
2023-05-21T22:50:54.221Z,18.48
2023-05-21T22:53:23.356Z,18.67
2023-05-21T22:55:51.393Z,18.69
2023-05-21T22:58:21.998Z,18.74
2023-05-21T23:00:50.307Z,18.74
2023-05-21T23:03:18.554Z,18.66
2023-05-21T23:05:46.732Z,18.63
2023-05-21T23:08:14.841Z,18.61
2023-05-21T23:10:43.000Z,18.61
2023-05-21T23:13:12.782Z,18.62
2023-05-21T23:15:43.729Z,18.61
2023-05-21T23:18:12.458Z,18.60
2023-05-21T23:20:41.168Z,18.63
2023-05-21T23:23:10.132Z,18.58
2023-05-21T23:25:37.998Z,18.42
2023-05-21T23:28:06.175Z,18.32
2023-05-21T23:30:34.106Z,18.17
2023-05-21T23:33:06.623Z,18.04
2023-05-21T23:35:34.611Z,17.96
2023-05-21T23:38:02.508Z,17.99
2023-05-21T23:40:30.464Z,18.18
2023-05-21T23:42:58.449Z,18.16
2023-05-21T23:45:26.481Z,18.18
2023-05-21T23:47:54.814Z,18.25
2023-05-21T23:50:25.910Z,18.19
2023-05-21T23:52:53.937Z,18.08
2023-05-21T23:55:21.956Z,18.04
2023-05-21T23:57:49.895Z,17.97
